Reepham, United Kingdom
Current Conditions -  °F | °C
As of 10:50 PM on Tuesday 27 Jan 2015 (Local Time) from EGXW Reporting Station
Broken Clouds Broken Clouds  
Wind Chill: 34°   Ceiling: 2300
Heat Index: 41°   Visibility: 6mi
Dew Point: 36°   Wind: 13mph
Humidity: 81%   Direction: 230°SW
Pressure: 29.97"   Gusts: NA
Location:  53.23°N, 0.43°W
Report Text: EGXW 272250Z 23011KT 9999 BKN023 05/02 Q1015 WHT
Loading
Personal Weather Stations






























Interactive Weather Map New forecast layout! Learn more

10-Day Weather Forecast

Advertisements
Track Severe Weather on mobile